Time;durP1;ratioP1;P1;durP2;ratioP2;P2;SDS_P1;SDS_P2;PMS_P1;PMS_P2;Temp;Humidity;BMP_temperature;BMP_pressure;BME280_temperature;BME280_humidity;BME280_pressure;Samples;Min_cycle;Max_cycle;Signal;HPM_P1;HPM_P2
2023/06/27 00:00:36;;;;;;;4.75;1.65;;;15.40;99.90;;;;;;5072137;28;20024;-51
2023/06/27 00:03:02;;;;;;;4.97;1.55;;;15.40;99.90;;;;;;5072252;28;20393;-54
2023/06/27 00:05:29;;;;;;;6.35;2.05;;;15.30;99.90;;;;;;5072168;28;20470;-52
2023/06/27 00:07:54;;;;;;;4.05;1.52;;;15.30;99.90;;;;;;5072109;28;20028;-54
2023/06/27 00:10:20;;;;;;;3.33;1.55;;;15.30;99.90;;;;;;5053881;28;20029;-54
2023/06/27 00:12:46;;;;;;;3.17;1.50;;;15.20;99.90;;;;;;5072057;28;20028;-55
2023/06/27 00:15:11;;;;;;;2.53;1.25;;;15.20;99.90;;;;;;5072009;28;20108;-53
2023/06/27 00:17:40;;;;;;;3.65;1.38;;;15.10;99.90;;;;;;5071870;28;20032;-50
2023/06/27 00:20:09;;;;;;;3.75;1.70;;;15.00;99.90;;;;;;5071651;28;20036;-52
2023/06/27 00:22:39;;;;;;;3.33;1.65;;;14.90;99.90;;;;;;5071860;28;20189;-52
2023/06/27 00:25:06;;;;;;;5.78;2.05;;;14.90;99.90;;;;;;5071839;28;20104;-54
2023/06/27 00:27:31;;;;;;;3.10;1.60;;;14.90;99.90;;;;;;5053050;28;20029;-53
2023/06/27 00:29:58;;;;;;;4.25;1.63;;;14.80;99.90;;;;;;5053609;28;20496;-50
2023/06/27 00:32:24;;;;;;;3.30;1.42;;;14.80;99.90;;;;;;5071496;28;20035;-53
2023/06/27 00:34:50;;;;;;;4.15;1.50;;;14.70;99.90;;;;;;5053691;28;20104;-52
2023/06/27 00:37:16;;;;;;;3.90;1.50;;;14.70;99.90;;;;;;5053283;28;20257;-53
2023/06/27 00:39:42;;;;;;;2.70;1.30;;;14.70;99.90;;;;;;5036666;28;20547;-51
2023/06/27 00:42:07;;;;;;;3.83;1.67;;;14.60;99.90;;;;;;5053310;28;20043;-53
2023/06/27 00:44:33;;;;;;;5.72;1.88;;;14.60;99.90;;;;;;5071436;28;20461;-51
2023/06/27 00:46:59;;;;;;;4.03;1.45;;;14.60;99.90;;;;;;5053181;28;20028;-53
2023/06/27 00:49:25;;;;;;;6.13;2.03;;;14.70;99.90;;;;;;5053154;28;20040;-52
2023/06/27 00:51:53;;;;;;;3.72;1.60;;;14.70;99.90;;;;;;5052987;28;20028;-53
2023/06/27 00:54:19;;;;;;;4.90;1.45;;;14.60;99.90;;;;;;5053366;28;20037;-51
2023/06/27 00:56:46;;;;;;;3.17;1.52;;;14.60;99.90;;;;;;5071244;28;20028;-53
2023/06/27 00:59:12;;;;;;;4.88;1.38;;;14.50;99.90;;;;;;5053137;28;20036;-49
2023/06/27 01:01:38;;;;;;;4.25;1.50;;;14.50;99.90;;;;;;5052773;28;20047;-50
2023/06/27 01:04:04;;;;;;;3.28;1.17;;;14.50;99.90;;;;;;5071074;28;20042;-53
2023/06/27 01:07:00;;;;;;;3.42;1.40;;;14.50;99.90;;;;;;5070820;28;20185;-52
2023/06/27 01:09:35;;;;;;;4.35;1.30;;;14.50;99.90;;;;;;5070949;28;20031;-53
2023/06/27 01:12:12;;;;;;;2.92;1.30;;;14.60;99.90;;;;;;5070698;28;20032;-53
2023/06/27 01:14:41;;;;;;;3.53;1.23;;;14.70;99.90;;;;;;5052986;28;20036;-52
2023/06/27 01:17:07;;;;;;;4.50;1.63;;;14.60;99.90;;;;;;5071243;28;20047;-53
2023/06/27 01:19:35;;;;;;;2.70;1.55;;;14.60;99.90;;;;;;5070722;28;20032;-51
2023/06/27 01:22:08;;;;;;;5.35;1.75;;;14.50;99.90;;;;;;5070561;28;20028;-53
2023/06/27 01:24:36;;;;;;;4.80;1.90;;;14.50;99.90;;;;;;5070888;28;20059;-52
2023/06/27 01:27:03;;;;;;;4.47;1.70;;;14.40;99.90;;;;;;5070604;28;20401;-52
2023/06/27 01:29:29;;;;;;;4.10;1.30;;;14.30;99.90;;;;;;5070536;28;20493;-49
2023/06/27 01:32:24;;;;;;;3.17;1.40;;;14.20;99.90;;;;;;5070498;28;20029;-51
2023/06/27 01:35:11;;;;;;;2.85;1.60;;;14.20;99.90;;;;;;5070620;28;20103;-51
2023/06/27 01:37:43;;;;;;;3.47;1.48;;;14.30;99.90;;;;;;5070045;28;20318;-51
2023/06/27 01:40:13;;;;;;;1.83;1.20;;;14.40;99.90;;;;;;5052369;28;20033;-49
2023/06/27 01:42:41;;;;;;;4.13;1.55;;;14.40;99.90;;;;;;5070767;28;20435;-54
2023/06/27 01:45:09;;;;;;;2.92;1.50;;;14.40;99.90;;;;;;5052807;28;20036;-52
2023/06/27 01:47:37;;;;;;;6.97;1.60;;;14.40;99.90;;;;;;5052484;28;20036;-49
2023/06/27 01:50:03;;;;;;;3.00;1.60;;;14.30;99.90;;;;;;5070151;28;20025;-54
2023/06/27 01:52:29;;;;;;;2.30;1.38;;;14.40;99.90;;;;;;5052404;28;20036;-50
2023/06/27 01:54:56;;;;;;;3.05;1.20;;;14.20;99.90;;;;;;5070480;28;20452;-51
2023/06/27 01:57:22;;;;;;;3.15;1.38;;;14.20;99.90;;;;;;5070621;28;20032;-50
2023/06/27 01:59:47;;;;;;;4.57;1.90;;;14.20;99.90;;;;;;5052419;28;20215;-53
2023/06/27 02:02:13;;;;;;;4.13;1.60;;;14.10;99.90;;;;;;5070208;28;20056;-52
2023/06/27 02:04:39;;;;;;;2.95;1.52;;;14.00;99.90;;;;;;5070235;28;20032;-54
2023/06/27 02:07:05;;;;;;;6.40;1.80;;;14.00;99.90;;;;;;5052241;28;20124;-52
2023/06/27 02:09:30;;;;;;;2.75;1.40;;;13.90;99.90;;;;;;5052208;28;20056;-54
2023/06/27 02:11:58;;;;;;;2.75;1.55;;;13.90;99.90;;;;;;5070100;28;20392;-50
2023/06/27 02:14:23;;;;;;;2.88;1.50;;;13.80;99.90;;;;;;5052322;28;20024;-54
2023/06/27 02:16:49;;;;;;;2.38;1.33;;;13.80;99.90;;;;;;5052168;28;20032;-52
2023/06/27 02:19:17;;;;;;;4.32;1.70;;;13.80;99.90;;;;;;5069925;28;20035;-48
2023/06/27 02:21:43;;;;;;;3.45;1.60;;;13.80;99.90;;;;;;5051983;28;20497;-49
2023/06/27 02:24:09;;;;;;;5.18;1.50;;;13.90;99.90;;;;;;5070215;28;20465;-51
2023/06/27 02:26:46;;;;;;;3.00;1.60;;;14.00;99.90;;;;;;5052108;28;20032;-53
2023/06/27 02:29:11;;;;;;;3.72;1.40;;;14.00;99.90;;;;;;5052105;28;20559;-52
2023/06/27 02:31:37;;;;;;;5.80;2.30;;;14.00;99.90;;;;;;5051817;28;20068;-49
2023/06/27 02:34:04;;;;;;;4.45;1.60;;;14.00;99.90;;;;;;5070125;28;20031;-52
2023/06/27 02:36:31;;;;;;;2.88;1.85;;;14.00;99.90;;;;;;5052310;28;20335;-53
2023/06/27 02:39:00;;;;;;;4.60;1.63;;;13.90;99.90;;;;;;5052099;28;20082;-54
2023/06/27 02:41:25;;;;;;;4.45;1.80;;;13.90;99.90;;;;;;5069962;28;20021;-49
2023/06/27 02:43:51;;;;;;;4.30;1.60;;;13.90;99.90;;;;;;5069827;28;20372;-54
2023/06/27 02:46:18;;;;;;;4.22;2.00;;;13.90;99.90;;;;;;5051871;28;20433;-52
2023/06/27 02:48:43;;;;;;;4.18;1.67;;;13.90;99.90;;;;;;5051955;28;20032;-50
2023/06/27 02:51:09;;;;;;;4.13;1.50;;;13.90;99.90;;;;;;5055667;28;20032;-51
2023/06/27 02:53:35;;;;;;;2.97;1.50;;;13.90;99.90;;;;;;5073875;28;20111;-50
2023/06/27 02:56:03;;;;;;;4.38;1.85;;;13.90;99.90;;;;;;5056012;28;20087;-53
2023/06/27 02:58:31;;;;;;;3.10;1.50;;;13.90;99.90;;;;;;5055545;28;20124;-50
2023/06/27 03:01:03;;;;;;;3.53;1.52;;;13.90;99.90;;;;;;5039183;28;20029;-49
2023/06/27 03:03:31;;;;;;;3.17;1.70;;;13.90;99.90;;;;;;5056568;28;20028;-49
2023/06/27 03:05:57;;;;;;;3.20;1.88;;;13.90;99.90;;;;;;5074105;28;20388;-49
2023/06/27 03:08:23;;;;;;;3.78;1.83;;;13.90;99.90;;;;;;5075043;28;20044;-49
2023/06/27 03:10:48;;;;;;;4.07;1.75;;;13.90;99.90;;;;;;5055372;28;20028;-50
2023/06/27 03:13:14;;;;;;;4.50;1.80;;;13.90;99.90;;;;;;5056634;28;20029;-49
2023/06/27 03:15:40;;;;;;;4.50;1.77;;;13.90;99.90;;;;;;5056330;28;20037;-53
2023/06/27 03:18:07;;;;;;;4.38;1.58;;;13.90;99.90;;;;;;5055054;28;20092;-50
2023/06/27 03:20:32;;;;;;;3.45;1.60;;;13.80;99.90;;;;;;5055234;28;20119;-54
2023/06/27 03:22:58;;;;;;;4.03;1.65;;;13.90;99.90;;;;;;5055052;28;20025;-52
2023/06/27 03:25:24;;;;;;;3.08;1.60;;;13.90;99.90;;;;;;5055092;28;20029;-54
2023/06/27 03:27:50;;;;;;;6.43;1.70;;;13.80;99.90;;;;;;5054868;28;20032;-53
2023/06/27 03:30:16;;;;;;;4.47;1.70;;;13.80;99.90;;;;;;5055212;28;20104;-53
2023/06/27 03:32:42;;;;;;;5.78;1.95;;;13.90;99.90;;;;;;5055251;28;20025;-52
2023/06/27 03:35:08;;;;;;;3.78;1.60;;;13.80;99.90;;;;;;5053502;28;20044;-53
2023/06/27 03:37:35;;;;;;;5.25;1.80;;;13.80;99.90;;;;;;5049960;28;20119;-54
2023/06/27 03:40:02;;;;;;;3.47;1.67;;;13.80;99.90;;;;;;5065640;28;20029;-52
2023/06/27 03:42:27;;;;;;;5.25;1.83;;;13.80;99.90;;;;;;5035695;28;20029;-49
2023/06/27 03:44:53;;;;;;;3.17;1.70;;;13.80;99.90;;;;;;5061930;28;20224;-53
2023/06/27 03:47:19;;;;;;;3.00;1.63;;;13.80;99.90;;;;;;5038901;28;20504;-51
2023/06/27 03:49:44;;;;;;;3.30;1.90;;;13.90;99.90;;;;;;5051918;28;20062;-49
2023/06/27 03:52:10;;;;;;;5.20;1.80;;;13.90;99.90;;;;;;5038219;28;20020;-53
2023/06/27 03:54:36;;;;;;;4.57;1.73;;;13.90;99.90;;;;;;5055920;28;20021;-54
2023/06/27 03:57:01;;;;;;;4.70;1.85;;;14.00;99.90;;;;;;5069429;28;20142;-48
2023/06/27 03:59:27;;;;;;;2.67;1.45;;;14.00;99.90;;;;;;5052492;28;20036;-52
2023/06/27 04:01:53;;;;;;;5.47;1.98;;;14.10;99.90;;;;;;5051191;28;20017;-51
2023/06/27 04:04:18;;;;;;;4.00;1.70;;;14.20;99.90;;;;;;5070406;28;20024;-53
2023/06/27 04:06:44;;;;;;;3.47;1.70;;;14.30;99.90;;;;;;5063597;28;20032;-52
2023/06/27 04:09:10;;;;;;;5.93;2.10;;;14.30;99.90;;;;;;5068041;28;20021;-53
2023/06/27 04:11:35;;;;;;;3.10;1.88;;;14.40;99.90;;;;;;5051505;28;20021;-53
2023/06/27 04:14:02;;;;;;;6.03;2.20;;;14.40;99.90;;;;;;5039257;28;20367;-51
2023/06/27 04:16:28;;;;;;;6.88;2.70;;;14.50;99.90;;;;;;5068653;28;20044;-49
2023/06/27 04:18:54;;;;;;;8.32;2.00;;;14.60;99.90;;;;;;5048213;28;20046;-50
2023/06/27 04:21:21;;;;;;;5.15;1.92;;;14.70;99.90;;;;;;5065358;28;20033;-54
2023/06/27 04:23:47;;;;;;;5.55;1.90;;;14.80;99.90;;;;;;5060541;28;20120;-52
2023/06/27 04:26:15;;;;;;;4.75;1.92;;;14.90;99.90;;;;;;5063588;28;20513;-52
2023/06/27 04:28:44;;;;;;;6.13;2.38;;;15.10;99.90;;;;;;5063400;28;20051;-53
2023/06/27 04:31:10;;;;;;;7.53;2.42;;;15.20;99.90;;;;;;5060512;28;20049;-50
2023/06/27 04:33:42;;;;;;;2.88;1.55;;;15.30;99.90;;;;;;5058224;28;20071;-48
2023/06/27 04:36:09;;;;;;;7.53;2.10;;;15.40;99.90;;;;;;5054935;28;20037;-49
2023/06/27 04:38:37;;;;;;;4.60;2.03;;;15.50;99.90;;;;;;5066818;28;20043;-53
2023/06/27 04:41:07;;;;;;;4.45;1.88;;;15.70;99.90;;;;;;5060560;28;20100;-52
2023/06/27 04:43:34;;;;;;;6.97;3.00;;;15.80;99.90;;;;;;5057687;28;20505;-50
2023/06/27 04:46:00;;;;;;;5.10;1.92;;;15.90;99.90;;;;;;5068276;28;20028;-49
2023/06/27 04:48:27;;;;;;;4.05;2.00;;;16.00;99.90;;;;;;5061971;28;20075;-50
2023/06/27 04:50:54;;;;;;;7.43;2.30;;;16.00;99.90;;;;;;5060450;28;20056;-50
2023/06/27 04:53:20;;;;;;;6.43;2.20;;;16.10;99.90;;;;;;5056721;28;20091;-54
2023/06/27 04:55:47;;;;;;;3.65;1.80;;;16.20;99.90;;;;;;5070267;28;20020;-54
2023/06/27 04:58:13;;;;;;;5.95;1.90;;;16.20;99.90;;;;;;5049536;28;20033;-50
2023/06/27 05:03:27;;;;;;;6.90;2.08;;;16.30;99.90;;;;;;5489719;22;20038;-50
2023/06/27 05:05:53;;;;;;;7.25;2.22;;;16.40;99.90;;;;;;4992849;28;20050;-52
2023/06/27 05:08:18;;;;;;;6.68;2.40;;;16.50;99.90;;;;;;4990023;28;20156;-51
2023/06/27 05:10:44;;;;;;;7.60;2.50;;;16.60;99.90;;;;;;4990681;28;20402;-52
2023/06/27 05:13:10;;;;;;;6.57;2.10;;;16.70;99.90;;;;;;4980131;28;20065;-48
2023/06/27 05:15:35;;;;;;;7.38;1.98;;;16.70;99.90;;;;;;4988526;28;20486;-47
2023/06/27 05:18:07;;;;;;;5.80;2.00;;;16.70;99.90;;;;;;4989796;28;20064;-49
2023/06/27 05:20:32;;;;;;;7.55;2.70;;;16.80;99.90;;;;;;4989975;28;20022;-50
2023/06/27 05:22:58;;;;;;;7.93;2.08;;;16.80;99.90;;;;;;4989195;28;20081;-50
2023/06/27 05:25:24;;;;;;;4.90;1.70;;;16.80;99.90;;;;;;4989312;28;20026;-52
2023/06/27 05:27:49;;;;;;;7.93;1.73;;;16.80;99.90;;;;;;4989475;28;20034;-51
2023/06/27 05:30:15;;;;;;;10.00;3.17;;;16.90;99.90;;;;;;4989850;28;20050;-49
2023/06/27 05:32:40;;;;;;;6.20;2.05;;;16.90;99.90;;;;;;4988875;28;20053;-49
2023/06/27 05:35:07;;;;;;;5.28;2.10;;;16.90;99.90;;;;;;4989753;28;20030;-53
2023/06/27 05:37:33;;;;;;;7.40;2.45;;;17.00;99.90;;;;;;4990211;28;20406;-54
2023/06/27 05:39:58;;;;;;;8.05;2.92;;;17.00;99.90;;;;;;4989660;28;20033;-52
2023/06/27 05:42:24;;;;;;;6.82;2.40;;;17.00;99.90;;;;;;4989122;28;20094;-52
2023/06/27 05:44:49;;;;;;;7.75;2.20;;;16.90;99.90;;;;;;4989471;28;20065;-52
2023/06/27 05:47:16;;;;;;;4.25;1.77;;;17.00;99.90;;;;;;4989384;28;20049;-50
2023/06/27 05:49:41;;;;;;;6.55;1.85;;;17.10;99.90;;;;;;4989084;28;20048;-53
2023/06/27 05:52:07;;;;;;;5.55;1.98;;;17.10;99.90;;;;;;4988790;28;20030;-52
2023/06/27 05:54:33;;;;;;;7.93;2.20;;;17.10;99.90;;;;;;4989317;28;20133;-54
2023/06/27 05:56:58;;;;;;;7.20;2.67;;;17.10;99.90;;;;;;4989268;28;20023;-52
2023/06/27 05:59:24;;;;;;;10.23;2.42;;;17.10;99.90;;;;;;4989047;28;20037;-53
2023/06/27 06:01:50;;;;;;;4.53;1.73;;;17.20;99.90;;;;;;4988878;28;20447;-52
2023/06/27 06:04:15;;;;;;;8.07;2.47;;;17.20;99.90;;;;;;4989828;28;20085;-54
2023/06/27 06:06:41;;;;;;;6.95;1.90;;;17.20;99.90;;;;;;4989279;28;20030;-55
2023/06/27 06:09:07;;;;;;;5.63;2.03;;;17.30;99.90;;;;;;4989671;28;20034;-54
2023/06/27 06:11:36;;;;;;;6.72;2.03;;;17.30;99.90;;;;;;4990083;28;20057;-52
2023/06/27 06:14:03;;;;;;;7.30;2.33;;;17.40;99.90;;;;;;4989757;28;20133;-50
2023/06/27 06:16:32;;;;;;;8.43;2.20;;;17.60;99.90;;;;;;4990169;28;20014;-55
2023/06/27 06:18:58;;;;;;;6.57;2.40;;;17.60;99.90;;;;;;4989845;28;20059;-51
2023/06/27 06:21:24;;;;;;;5.82;1.98;;;17.70;99.90;;;;;;4989710;28;20430;-55
2023/06/27 06:23:50;;;;;;;9.57;2.67;;;17.70;99.90;;;;;;4989378;28;20026;-55
2023/06/27 06:26:15;;;;;;;6.40;2.22;;;17.90;99.90;;;;;;4993799;28;20030;-50
2023/06/27 06:28:41;;;;;;;9.13;2.25;;;18.00;99.90;;;;;;4993320;28;20026;-56
2023/06/27 06:31:10;;;;;;;6.63;2.40;;;18.00;99.90;;;;;;4993112;28;20030;-53
2023/06/27 06:33:39;;;;;;;7.82;2.42;;;18.10;99.90;;;;;;4974933;28;20034;-55
2023/06/27 06:36:06;;;;;;;8.80;2.42;;;18.20;99.90;;;;;;4993466;28;20049;-54
2023/06/27 06:38:32;;;;;;;6.25;2.33;;;18.20;99.90;;;;;;4989831;28;20265;-50
2023/06/27 06:40:57;;;;;;;6.85;2.42;;;18.20;99.90;;;;;;4989483;28;20033;-50
2023/06/27 06:43:26;;;;;;;6.10;2.25;;;18.30;99.90;;;;;;4990456;28;20030;-54
2023/06/27 06:45:52;;;;;;;9.93;2.50;;;18.20;99.90;;;;;;4990492;28;20030;-54
2023/06/27 06:48:21;;;;;;;7.90;2.22;;;18.30;99.90;;;;;;4988600;28;20124;-52
2023/06/27 06:50:49;;;;;;;7.00;2.30;;;18.40;99.90;;;;;;4989674;28;20054;-56
2023/06/27 06:53:14;;;;;;;9.07;2.83;;;18.50;99.90;;;;;;4988232;28;20074;-51
2023/06/27 06:55:40;;;;;;;8.50;2.40;;;18.40;99.90;;;;;;4991568;28;20445;-55
2023/06/27 06:58:06;;;;;;;6.28;2.30;;;18.40;99.90;;;;;;4988622;28;20065;-55
2023/06/27 07:00:31;;;;;;;8.10;2.47;;;18.30;99.90;;;;;;4989810;28;20026;-53
2023/06/27 07:02:57;;;;;;;6.60;2.78;;;18.30;99.90;;;;;;4990151;28;20026;-54
2023/06/27 07:05:23;;;;;;;8.55;2.38;;;18.40;99.90;;;;;;4990055;28;20040;-52
2023/06/27 07:07:49;;;;;;;8.38;2.45;;;18.60;99.90;;;;;;4989046;28;20578;-52
2023/06/27 07:10:15;;;;;;;6.00;2.75;;;18.60;99.90;;;;;;4990103;28;20062;-52
2023/06/27 07:12:40;;;;;;;6.97;2.58;;;18.70;99.90;;;;;;4990472;28;20394;-50
2023/06/27 07:15:07;;;;;;;9.07;2.60;;;18.80;99.90;;;;;;4989389;28;20112;-54
2023/06/27 07:17:33;;;;;;;8.60;2.33;;;18.90;99.90;;;;;;4988894;28;20070;-52
2023/06/27 07:20:00;;;;;;;9.48;2.72;;;19.00;99.90;;;;;;4988915;28;20053;-54
2023/06/27 07:22:25;;;;;;;8.57;2.75;;;19.10;99.90;;;;;;4990856;28;20022;-54
2023/06/27 07:24:51;;;;;;;7.22;3.03;;;19.20;99.90;;;;;;4990101;28;20475;-56
2023/06/27 07:27:17;;;;;;;7.68;2.47;;;19.30;99.90;;;;;;4990922;28;20034;-55
2023/06/27 07:29:43;;;;;;;9.13;2.72;;;19.40;99.90;;;;;;4989307;28;20104;-54
2023/06/27 07:32:10;;;;;;;8.27;2.92;;;19.50;99.90;;;;;;4988577;28;20049;-53
2023/06/27 07:34:37;;;;;;;10.07;2.70;;;19.60;99.90;;;;;;4989516;28;20034;-56
2023/06/27 07:37:03;;;;;;;5.88;2.17;;;19.80;99.90;;;;;;4989713;28;20038;-57
2023/06/27 07:39:28;;;;;;;8.15;2.45;;;19.90;99.90;;;;;;4989993;28;20485;-55
2023/06/27 07:41:54;;;;;;;9.68;2.47;;;19.90;99.90;;;;;;4991052;28;20037;-56
2023/06/27 07:44:20;;;;;;;7.90;2.60;;;20.00;99.90;;;;;;4990044;28;20065;-56
2023/06/27 07:46:45;;;;;;;7.22;2.50;;;20.00;99.90;;;;;;4989070;28;20045;-54
2023/06/27 07:49:11;;;;;;;6.18;2.03;;;20.00;99.90;;;;;;4988649;28;20102;-53
2023/06/27 07:51:37;;;;;;;9.27;2.70;;;20.10;99.90;;;;;;4989196;28;20027;-52
2023/06/27 07:54:03;;;;;;;6.40;2.72;;;20.10;99.90;;;;;;4988224;28;20030;-52
2023/06/27 07:56:29;;;;;;;8.10;2.40;;;20.20;99.90;;;;;;4988478;28;20026;-53
2023/06/27 07:58:55;;;;;;;8.25;2.30;;;20.30;99.90;;;;;;4988374;28;20395;-52
2023/06/27 08:01:21;;;;;;;8.02;2.70;;;20.40;99.90;;;;;;4989062;28;20038;-50
2023/06/27 08:03:46;;;;;;;5.63;2.15;;;20.50;99.90;;;;;;4987460;28;20030;-51
2023/06/27 08:06:12;;;;;;;12.73;2.63;;;20.50;99.60;;;;;;4990141;28;20041;-54
2023/06/27 08:08:38;;;;;;;6.18;2.40;;;20.60;99.80;;;;;;4989265;28;20137;-53
2023/06/27 08:11:04;;;;;;;8.13;2.28;;;20.50;99.00;;;;;;4991333;28;20183;-53
2023/06/27 08:13:30;;;;;;;7.65;2.50;;;20.50;99.90;;;;;;4989235;28;20066;-54
2023/06/27 08:15:55;;;;;;;5.88;1.80;;;20.60;99.40;;;;;;4989185;28;20023;-55
2023/06/27 08:18:21;;;;;;;6.47;2.10;;;20.60;99.00;;;;;;4988617;28;20030;-51
2023/06/27 08:20:47;;;;;;;7.88;2.13;;;20.60;99.10;;;;;;4988613;28;20069;-51
2023/06/27 08:23:13;;;;;;;9.75;2.65;;;20.70;99.00;;;;;;4988732;28;20121;-54
2023/06/27 08:25:38;;;;;;;4.97;1.90;;;20.80;98.90;;;;;;4988625;28;20524;-53
2023/06/27 08:28:04;;;;;;;4.85;2.25;;;20.90;98.60;;;;;;4991400;28;20061;-53
2023/06/27 08:30:31;;;;;;;5.63;2.08;;;21.00;98.60;;;;;;4991427;28;20344;-53
2023/06/27 08:32:56;;;;;;;6.55;1.92;;;21.10;98.00;;;;;;4990264;28;20045;-53
2023/06/27 08:35:22;;;;;;;7.57;2.38;;;21.10;97.50;;;;;;4991680;28;20026;-51
2023/06/27 08:37:48;;;;;;;7.20;2.22;;;21.10;97.60;;;;;;4973621;28;20128;-55
2023/06/27 08:40:24;;;;;;;6.55;1.90;;;21.10;97.90;;;;;;4991100;28;20078;-55
2023/06/27 08:42:51;;;;;;;6.05;2.00;;;21.10;97.70;;;;;;4990031;28;20128;-51
2023/06/27 08:45:16;;;;;;;6.90;1.83;;;21.20;97.60;;;;;;4989944;28;20034;-54
2023/06/27 08:47:46;;;;;;;5.70;1.85;;;21.30;97.00;;;;;;4991183;28;20124;-53
2023/06/27 08:50:17;;;;;;;4.13;1.50;;;21.40;96.60;;;;;;4991333;28;20402;-53
2023/06/27 08:52:47;;;;;;;5.90;1.63;;;21.50;95.90;;;;;;4990860;28;20038;-53
2023/06/27 08:55:34;;;;;;;4.82;2.10;;;21.50;95.70;;;;;;4991259;28;20041;-54
2023/06/27 08:58:04;;;;;;;4.93;1.30;;;21.70;95.80;;;;;;4987541;28;20047;-54
2023/06/27 09:00:30;;;;;;;4.28;1.48;;;21.70;93.50;;;;;;4988625;28;20088;-54
2023/06/27 09:02:56;;;;;;;8.95;2.55;;;21.60;92.90;;;;;;4990568;28;20042;-54
2023/06/27 09:05:22;;;;;;;6.65;2.30;;;21.40;93.70;;;;;;4991030;28;20042;-55
2023/06/27 09:07:49;;;;;;;4.20;1.38;;;21.50;94.20;;;;;;4990916;28;20486;-54
2023/06/27 09:10:15;;;;;;;4.22;1.48;;;21.50;94.20;;;;;;4990573;28;20022;-55
2023/06/27 09:12:45;;;;;;;6.88;1.33;;;21.50;93.40;;;;;;4990380;28;20735;-54
2023/06/27 09:15:11;;;;;;;5.25;1.67;;;21.40;93.10;;;;;;4990857;28;20049;-52
2023/06/27 09:17:38;;;;;;;4.60;1.48;;;21.30;94.30;;;;;;4990966;28;20442;-54
2023/06/27 09:20:05;;;;;;;5.32;1.70;;;21.30;94.10;;;;;;4990703;28;20627;-54
2023/06/27 09:22:31;;;;;;;6.90;1.70;;;21.20;94.60;;;;;;4989960;28;20393;-53
2023/06/27 09:25:09;;;;;;;5.85;1.55;;;21.10;94.20;;;;;;4990047;28;20117;-50
2023/06/27 09:27:35;;;;;;;6.53;1.70;;;21.10;93.50;;;;;;4989819;28;20042;-51
2023/06/27 09:30:02;;;;;;;4.13;1.38;;;21.00;94.30;;;;;;4990068;28;20114;-55
2023/06/27 09:32:28;;;;;;;2.65;1.40;;;21.10;94.40;;;;;;4989525;28;20042;-53
2023/06/27 09:34:54;;;;;;;5.32;1.65;;;21.10;94.40;;;;;;4989520;28;20387;-52
2023/06/27 09:37:20;;;;;;;5.00;1.30;;;21.00;93.80;;;;;;4989611;28;20035;-54
2023/06/27 09:39:46;;;;;;;4.75;2.17;;;21.10;93.10;;;;;;4990169;28;20037;-55
2023/06/27 09:42:12;;;;;;;5.13;1.75;;;21.10;92.90;;;;;;4971752;28;20080;-52
2023/06/27 09:44:37;;;;;;;10.45;2.00;;;21.30;92.90;;;;;;4972356;28;20062;-52
2023/06/27 09:47:09;;;;;;;8.38;2.03;;;21.40;93.10;;;;;;4990234;28;20107;-50
2023/06/27 09:49:34;;;;;;;5.15;1.73;;;21.50;93.90;;;;;;4990058;28;20475;-52
2023/06/27 09:52:04;;;;;;;4.45;1.60;;;21.70;92.90;;;;;;4988939;28;20096;-53
2023/06/27 09:54:30;;;;;;;4.18;1.35;;;21.90;92.50;;;;;;4989710;28;20026;-52
2023/06/27 09:56:56;;;;;;;3.53;1.20;;;21.90;91.70;;;;;;4989594;28;20060;-56
2023/06/27 09:59:23;;;;;;;5.55;2.05;;;22.00;91.30;;;;;;4990571;28;20120;-57
2023/06/27 10:01:50;;;;;;;6.03;1.38;;;21.90;90.90;;;;;;4993445;28;20038;-56
2023/06/27 10:04:16;;;;;;;4.68;1.73;;;22.10;91.30;;;;;;4993373;28;20034;-56
2023/06/27 10:06:42;;;;;;;5.20;1.10;;;22.20;90.80;;;;;;4993445;28;20121;-55
2023/06/27 10:09:08;;;;;;;2.65;1.05;;;22.30;90.90;;;;;;4994200;28;20435;-56
2023/06/27 10:11:35;;;;;;;3.67;1.10;;;22.20;90.60;;;;;;4994097;28;20046;-57
2023/06/27 10:14:01;;;;;;;3.03;1.08;;;22.20;90.70;;;;;;4993627;28;20030;-55
2023/06/27 10:16:28;;;;;;;3.97;1.40;;;22.10;90.90;;;;;;4993515;28;20073;-56
2023/06/27 10:18:55;;;;;;;4.20;1.48;;;22.00;91.10;;;;;;4993179;28;20402;-54
2023/06/27 10:21:24;;;;;;;3.63;1.38;;;21.90;91.50;;;;;;4993607;28;20146;-57
2023/06/27 10:23:52;;;;;;;3.20;1.73;;;21.90;91.00;;;;;;4992960;28;20037;-57
2023/06/27 10:26:19;;;;;;;;;;;21.80;91.30;;;;;;4993933;28;20459;-56
2023/06/27 10:28:51;;;;;;;1.17;0.82;;;21.90;90.90;;;;;;4992999;28;19914;-55
2023/06/27 10:31:42;;;;;;;4.30;1.20;;;22.00;90.70;;;;;;4993369;28;20037;-55
2023/06/27 10:34:30;;;;;;;4.88;1.30;;;22.00;90.00;;;;;;4992740;28;20050;-56
2023/06/27 10:36:58;;;;;;;4.78;1.30;;;22.00;89.80;;;;;;4992339;28;20074;-56
2023/06/27 10:39:32;;;;;;;3.63;1.77;;;22.00;89.50;;;;;;4992927;28;20171;-55
2023/06/27 10:42:15;;;;;;;4.25;1.45;;;22.10;90.20;;;;;;4992335;28;20038;-52
2023/06/27 10:45:07;;;;;;;4.60;1.60;;;22.10;90.50;;;;;;4992989;28;20022;-58
2023/06/27 10:47:34;;;;;;;3.20;1.48;;;22.10;90.80;;;;;;4992947;28;20049;-56
2023/06/27 10:50:14;;;;;;;3.13;1.20;;;22.10;90.30;;;;;;4993503;28;20079;-58
2023/06/27 10:52:58;;;;;;;3.88;1.38;;;22.00;90.60;;;;;;4992492;28;20068;-56
2023/06/27 10:55:27;;;;;;;2.13;1.23;;;21.90;90.00;;;;;;4992869;28;20034;-57
2023/06/27 10:58:14;;;;;;;2.67;1.00;;;21.90;90.50;;;;;;4993152;28;20065;-56
2023/06/27 11:00:46;;;;;;;3.15;1.20;;;21.90;90.70;;;;;;4992736;28;20100;-54
2023/06/27 11:03:18;;;;;;;4.47;1.30;;;21.80;90.90;;;;;;4992059;28;20034;-55
2023/06/27 11:05:57;;;;;;;3.83;1.27;;;21.80;90.50;;;;;;4992579;28;20494;-52
2023/06/27 11:08:27;;;;;;;4.78;0.90;;;21.80;90.50;;;;;;4992739;28;20034;-57
2023/06/27 11:10:59;;;;;;;7.22;1.40;;;21.90;88.80;;;;;;4992538;28;20034;-57
2023/06/27 11:13:27;;;;;;;4.07;1.27;;;21.90;89.60;;;;;;4974172;28;20122;-56
2023/06/27 11:15:54;;;;;;;5.13;1.30;;;22.00;89.70;;;;;;4975128;28;20030;-56
2023/06/27 11:18:22;;;;;;;2.28;1.05;;;22.10;88.20;;;;;;4992548;28;20061;-55
2023/06/27 11:20:49;;;;;;;4.22;1.45;;;22.10;90.40;;;;;;4992444;28;20038;-50
2023/06/27 11:23:15;;;;;;;3.47;1.60;;;22.30;90.00;;;;;;4991607;28;20532;-53
2023/06/27 11:25:44;;;;;;;4.13;1.38;;;22.30;88.70;;;;;;4992171;28;20030;-50
2023/06/27 11:28:11;;;;;;;3.67;1.80;;;22.20;86.10;;;;;;4992034;28;20038;-56
2023/06/27 11:30:37;;;;;;;2.97;1.33;;;22.20;87.70;;;;;;4992218;28;20030;-52
2023/06/27 11:33:03;;;;;;;2.53;1.40;;;22.20;89.10;;;;;;4987803;28;20034;-54
2023/06/27 11:35:31;;;;;;;3.00;1.33;;;22.30;90.00;;;;;;4988113;28;20058;-52
2023/06/27 11:37:57;;;;;;;5.47;1.30;;;22.30;90.10;;;;;;4988504;28;20040;-53
2023/06/27 11:40:24;;;;;;;5.05;1.60;;;22.50;90.10;;;;;;4988338;28;20046;-57
2023/06/27 11:42:50;;;;;;;5.45;1.40;;;22.50;90.10;;;;;;4987947;28;20037;-55
2023/06/27 11:45:16;;;;;;;5.32;1.38;;;22.50;90.00;;;;;;4971023;28;20038;-56
2023/06/27 11:47:43;;;;;;;2.80;1.30;;;22.60;87.00;;;;;;4989246;28;20038;-57
2023/06/27 11:50:11;;;;;;;1.57;0.83;;;22.60;86.30;;;;;;4988753;28;20027;-55
2023/06/27 11:52:38;;;;;;;2.10;0.93;;;22.60;87.20;;;;;;4988648;28;20035;-55
2023/06/27 11:55:05;;;;;;;2.42;1.10;;;22.60;85.00;;;;;;4988276;28;20441;-51
2023/06/27 11:57:46;;;;;;;2.55;1.38;;;22.70;84.60;;;;;;4973159;28;20097;-57
2023/06/27 12:00:23;;;;;;;3.90;1.83;;;22.80;84.70;;;;;;4987483;28;20030;-54
2023/06/27 12:02:53;;;;;;;2.33;1.00;;;22.80;83.70;;;;;;4987203;28;20437;-56
2023/06/27 12:05:21;;;;;;;3.67;0.90;;;22.90;83.00;;;;;;4987767;28;20057;-57
2023/06/27 12:08:04;;;;;;;4.27;1.10;;;22.90;82.40;;;;;;4988391;28;20058;-56
2023/06/27 12:10:48;;;;;;;3.47;1.30;;;22.90;82.20;;;;;;4988645;28;20030;-51
2023/06/27 12:13:13;;;;;;;2.45;1.10;;;22.90;84.20;;;;;;4969805;28;20542;-53
2023/06/27 12:15:44;;;;;;;2.70;1.00;;;23.00;85.30;;;;;;4989191;28;20022;-52
2023/06/27 12:18:11;;;;;;;3.00;1.30;;;23.10;85.70;;;;;;4990283;28;20041;-51
2023/06/27 12:20:44;;;;;;;4.63;1.25;;;23.30;84.00;;;;;;4989198;28;20030;-54
2023/06/27 12:23:10;;;;;;;1.65;1.00;;;23.20;82.80;;;;;;4986783;28;20545;-54
2023/06/27 12:25:39;;;;;;;4.15;0.88;;;23.30;83.00;;;;;;4987777;28;20498;-55
2023/06/27 12:28:06;;;;;;;3.53;1.50;;;23.30;84.30;;;;;;4987915;28;20034;-54
2023/06/27 12:30:31;;;;;;;3.10;1.17;;;23.20;80.60;;;;;;4987673;28;20022;-56
2023/06/27 12:32:57;;;;;;;1.88;1.00;;;23.20;81.60;;;;;;4987598;28;20041;-56
2023/06/27 12:35:23;;;;;;;3.42;1.08;;;23.30;80.80;;;;;;4987785;28;20053;-51
2023/06/27 12:37:49;;;;;;;3.42;1.17;;;23.40;80.70;;;;;;4987434;28;20038;-55
2023/06/27 12:40:17;;;;;;;2.58;1.25;;;23.40;80.70;;;;;;4987938;28;20068;-55
2023/06/27 12:42:44;;;;;;;;;;;23.40;79.80;;;;;;4986963;28;20409;-55
2023/06/27 12:45:11;;;;;;;3.90;1.63;;;23.40;78.80;;;;;;4987013;28;20013;-55
2023/06/27 12:47:41;;;;;;;2.03;1.10;;;23.40;78.60;;;;;;4987280;28;20541;-54
2023/06/27 12:50:11;;;;;;;4.53;1.00;;;23.50;78.80;;;;;;4987568;28;20157;-56
2023/06/27 12:52:37;;;;;;;2.33;1.15;;;23.60;77.10;;;;;;4986945;28;20394;-54